Time;durP1;ratioP1;P1;durP2;ratioP2;P2;SDS_P1;SDS_P2;PMS_P1;PMS_P2;Temp;Humidity;BMP_temperature;BMP_pressure;BME280_temperature;BME280_humidity;BME280_pressure;Samples;Min_cycle;Max_cycle;Signal;HPM_P1;HPM_P2
2023/04/21 00:00:11;;;;;;;31.52;23.92;;;10.60;99.90;;;;;;2093114;28;20032;-71
2023/04/21 00:01:12;;;;;;;28.63;24.83;;;10.60;99.90;;;;;;2095864;28;20017;-71
2023/04/21 00:02:14;;;;;;;28.52;24.92;;;10.60;99.90;;;;;;2093084;28;20029;-71
2023/04/21 00:03:15;;;;;;;28.88;24.75;;;10.60;99.90;;;;;;2092239;28;20024;-71
2023/04/21 00:04:16;;;;;;;29.63;25.83;;;10.60;99.90;;;;;;2092205;28;20020;-71
2023/04/21 00:05:17;;;;;;;32.97;25.85;;;10.60;99.90;;;;;;2094422;28;20012;-71
2023/04/21 00:06:21;;;;;;;29.60;25.17;;;10.60;99.90;;;;;;2091188;28;20029;-71
2023/04/21 00:07:21;;;;;;;31.88;25.92;;;10.60;99.90;;;;;;2093597;28;20488;-71
2023/04/21 00:08:22;;;;;;;29.30;25.17;;;10.50;99.90;;;;;;2092015;28;20334;-71
2023/04/21 00:09:22;;;;;;;27.90;24.25;;;10.60;99.90;;;;;;2091083;28;20052;-71
2023/04/21 00:10:23;;;;;;;31.98;26.70;;;10.50;99.90;;;;;;2091680;28;20056;-71
2023/04/21 00:11:24;;;;;;;31.63;26.13;;;10.50;99.90;;;;;;2092045;28;20056;-71
2023/04/21 00:12:24;;;;;;;29.23;26.08;;;10.50;99.90;;;;;;2094139;28;20020;-71
2023/04/21 00:13:25;;;;;;;29.50;25.98;;;10.50;99.90;;;;;;2093976;28;20044;-71
2023/04/21 00:14:25;;;;;;;28.58;25.20;;;10.50;99.90;;;;;;2092094;28;20024;-71
2023/04/21 00:15:26;;;;;;;29.08;25.65;;;10.50;99.90;;;;;;2093487;28;20017;-71
2023/04/21 00:16:26;;;;;;;31.52;27.77;;;10.50;99.90;;;;;;2090937;28;20722;-71
2023/04/21 00:17:27;;;;;;;32.80;27.00;;;10.50;99.90;;;;;;2092149;28;20036;-71
2023/04/21 00:18:28;;;;;;;31.08;26.90;;;10.50;99.90;;;;;;2091996;28;20053;-71
2023/04/21 00:19:28;;;;;;;33.78;27.60;;;10.50;99.90;;;;;;2092319;28;20021;-71
2023/04/21 00:20:29;;;;;;;33.65;28.48;;;10.50;99.90;;;;;;2088625;28;20040;-71
2023/04/21 00:21:30;;;;;;;34.30;29.30;;;10.50;99.90;;;;;;2092617;28;20040;-71
2023/04/21 00:22:31;;;;;;;29.30;26.00;;;10.50;99.90;;;;;;2091725;28;20032;-71
2023/04/21 00:23:31;;;;;;;32.35;27.33;;;10.50;99.90;;;;;;2093763;28;20034;-71
2023/04/21 00:24:32;;;;;;;30.83;25.20;;;10.40;99.90;;;;;;2091854;28;20021;-71
2023/04/21 00:25:32;;;;;;;31.83;26.15;;;10.40;99.90;;;;;;2093610;28;20116;-71
2023/04/21 00:26:33;;;;;;;33.63;27.90;;;10.40;99.90;;;;;;2098186;28;20032;-71
2023/04/21 00:27:33;;;;;;;33.17;27.95;;;10.40;99.90;;;;;;2096094;28;20033;-71
2023/04/21 00:28:34;;;;;;;31.60;27.73;;;10.40;99.90;;;;;;2092856;28;20017;-71
2023/04/21 00:29:34;;;;;;;32.17;26.67;;;10.40;99.90;;;;;;2093799;28;20100;-71
2023/04/21 00:30:35;;;;;;;35.72;28.45;;;10.40;99.90;;;;;;2092772;28;20066;-71
2023/04/21 00:31:36;;;;;;;35.10;27.50;;;10.40;99.90;;;;;;2093944;28;20110;-71
2023/04/21 00:32:36;;;;;;;32.13;27.67;;;10.40;99.90;;;;;;2094798;28;20028;-72
2023/04/21 00:33:37;;;;;;;32.25;27.52;;;10.40;99.90;;;;;;2093111;28;20020;-72
2023/04/21 00:34:37;;;;;;;32.55;27.45;;;10.40;99.90;;;;;;2092649;28;20103;-72
2023/04/21 00:35:38;;;;;;;30.75;26.40;;;10.40;99.90;;;;;;2091776;28;20033;-72
2023/04/21 00:36:38;;;;;;;29.92;26.45;;;10.40;99.90;;;;;;2093278;28;20038;-72
2023/04/21 00:37:40;;;;;;;32.40;27.45;;;10.40;99.90;;;;;;2094438;28;20066;-72
2023/04/21 00:38:40;;;;;;;29.08;24.90;;;10.40;99.90;;;;;;2093386;28;20016;-72
2023/04/21 00:39:41;;;;;;;31.77;27.42;;;10.40;99.90;;;;;;2091514;28;20037;-72
2023/04/21 00:40:41;;;;;;;29.75;25.25;;;10.40;99.90;;;;;;2094321;28;20032;-72
2023/04/21 00:41:42;;;;;;;32.15;26.48;;;10.40;99.90;;;;;;2096914;28;20471;-72
2023/04/21 00:42:42;;;;;;;31.38;27.80;;;10.40;99.90;;;;;;2095630;28;20115;-72
2023/04/21 00:44:06;;;;;;;34.03;28.35;;;10.50;99.90;;;;;;2095444;28;20025;-72
2023/04/21 00:45:07;;;;;;;31.75;26.52;;;10.40;99.90;;;;;;2093411;28;20096;-72
2023/04/21 00:46:07;;;;;;;33.80;27.77;;;10.40;99.90;;;;;;2093194;28;20029;-72
2023/04/21 00:47:08;;;;;;;32.97;27.85;;;10.50;99.90;;;;;;2092109;28;20098;-71
2023/04/21 00:48:09;;;;;;;31.33;27.77;;;10.50;99.90;;;;;;2093480;28;20028;-71
2023/04/21 00:49:12;;;;;;;32.88;28.23;;;10.50;99.90;;;;;;2091358;28;20040;-71
2023/04/21 00:50:12;;;;;;;36.85;28.52;;;10.50;99.90;;;;;;2087646;28;20423;-71
2023/04/21 00:51:13;;;;;;;30.67;26.25;;;10.50;99.90;;;;;;2094733;28;20051;-71
2023/04/21 00:52:16;;;;;;;36.85;28.25;;;10.50;99.90;;;;;;2093174;28;20032;-71
2023/04/21 00:53:19;;;;;;;31.23;27.75;;;10.50;99.90;;;;;;2091165;28;20112;-71
2023/04/21 00:54:22;;;;;;;31.15;27.40;;;10.50;99.90;;;;;;2091695;28;20064;-71
2023/04/21 00:55:24;;;;;;;32.72;27.65;;;10.50;99.90;;;;;;2095035;28;20017;-71
2023/04/21 00:56:25;;;;;;;27.75;22.83;;;10.50;99.90;;;;;;2093285;28;20655;-71
2023/04/21 00:57:27;;;;;;;28.75;23.85;;;10.50;99.90;;;;;;2092796;28;20020;-71
2023/04/21 00:58:28;;;;;;;33.47;28.23;;;10.50;99.90;;;;;;2091977;28;20031;-71
2023/04/21 00:59:29;;;;;;;31.60;27.38;;;10.50;99.90;;;;;;2092295;28;20043;-71
2023/04/21 01:00:30;;;;;;;32.33;27.83;;;10.50;99.90;;;;;;2089745;28;20373;-71
2023/04/21 01:01:33;;;;;;;32.90;26.95;;;10.50;99.90;;;;;;2091626;28;20047;-71
2023/04/21 01:02:36;;;;;;;30.20;26.83;;;10.50;99.90;;;;;;2092448;28;20017;-71
2023/04/21 01:03:36;;;;;;;30.65;27.27;;;10.60;99.90;;;;;;2095655;28;20116;-71
2023/04/21 01:04:39;;;;;;;32.80;28.38;;;10.60;99.90;;;;;;2094893;28;20025;-71
2023/04/21 01:05:41;;;;;;;34.53;27.73;;;10.60;99.90;;;;;;2095144;28;20025;-71
2023/04/21 01:06:42;;;;;;;34.47;29.92;;;10.60;99.90;;;;;;2094799;28;20031;-71
2023/04/21 01:07:43;;;;;;;31.55;27.40;;;10.60;99.90;;;;;;2092866;28;20021;-71
2023/04/21 01:08:45;;;;;;;32.20;26.65;;;10.60;99.90;;;;;;2093075;28;20028;-71
2023/04/21 01:09:46;;;;;;;30.77;26.10;;;10.60;99.90;;;;;;2092237;28;20020;-71
2023/04/21 01:10:46;;;;;;;33.40;28.38;;;10.60;99.90;;;;;;2094977;28;20036;-71
2023/04/21 01:12:19;;;;;;;32.65;28.05;;;10.60;99.90;;;;;;2092555;28;20028;-71
2023/04/21 01:13:21;;;;;;;28.17;25.05;;;10.60;99.90;;;;;;2088203;28;20136;-71
2023/04/21 01:14:21;;;;;;;23.48;20.10;;;10.60;99.90;;;;;;2092519;28;20059;-71
2023/04/21 01:15:22;;;;;;;28.52;24.65;;;10.60;99.90;;;;;;2093421;28;20024;-71
2023/04/21 01:16:23;;;;;;;24.85;22.20;;;10.60;99.90;;;;;;2093975;28;20024;-71
2023/04/21 01:17:24;;;;;;;26.45;21.90;;;10.60;99.90;;;;;;2091414;28;20013;-71
2023/04/21 01:18:25;;;;;;;26.17;22.35;;;10.60;99.90;;;;;;2091444;28;20380;-71
2023/04/21 01:19:29;;;;;;;28.02;23.48;;;10.60;99.90;;;;;;2091894;28;20043;-71
2023/04/21 01:20:29;;;;;;;28.27;23.23;;;10.60;99.90;;;;;;2092676;28;20032;-71
2023/04/21 01:21:39;;;;;;;25.95;22.02;;;10.60;99.90;;;;;;2090504;28;20166;-71
2023/04/21 01:22:41;;;;;;;24.13;21.58;;;10.60;99.90;;;;;;2091922;28;20527;-72
2023/04/21 01:23:42;;;;;;;24.55;21.98;;;10.60;99.90;;;;;;2094580;28;20048;-71
2023/04/21 01:24:46;;;;;;;25.98;23.15;;;10.60;99.90;;;;;;2094603;28;20735;-71
2023/04/21 01:25:46;;;;;;;33.90;29.23;;;10.70;99.90;;;;;;2094094;28;20400;-71
2023/04/21 01:26:48;;;;;;;34.50;28.92;;;10.70;99.90;;;;;;2095444;28;20123;-71
2023/04/21 01:27:48;;;;;;;31.17;27.70;;;10.70;99.90;;;;;;2092504;28;20019;-71
2023/04/21 01:28:49;;;;;;;31.48;27.92;;;10.70;99.90;;;;;;2095753;28;20040;-71
2023/04/21 01:29:51;;;;;;;32.03;27.73;;;10.70;99.90;;;;;;2093701;28;20117;-71
2023/04/21 01:30:52;;;;;;;27.08;23.63;;;10.60;99.90;;;;;;2093899;28;20040;-71
2023/04/21 01:31:52;;;;;;;32.08;26.95;;;10.70;99.90;;;;;;2094073;28;20032;-71
2023/04/21 01:32:53;;;;;;;31.23;27.25;;;10.70;99.90;;;;;;2095744;28;20099;-71
2023/04/21 01:33:54;;;;;;;26.00;22.15;;;10.70;99.90;;;;;;2096184;28;20028;-71
2023/04/21 01:34:56;;;;;;;33.72;28.80;;;10.70;99.90;;;;;;2095168;28;20107;-71
2023/04/21 01:35:58;;;;;;;33.05;28.58;;;10.70;99.90;;;;;;2093610;28;20440;-71
2023/04/21 01:36:59;;;;;;;33.13;29.05;;;10.70;99.90;;;;;;2094900;28;20115;-71
2023/04/21 01:38:00;;;;;;;32.10;27.63;;;10.60;99.90;;;;;;2092779;28;20020;-71
2023/04/21 01:39:00;;;;;;;34.13;29.77;;;10.70;99.90;;;;;;2092279;28;20020;-71
2023/04/21 01:40:05;;;;;;;36.40;30.23;;;10.70;99.90;;;;;;2094524;28;20029;-71
2023/04/21 01:41:06;;;;;;;32.88;28.60;;;10.60;99.90;;;;;;2096287;28;20020;-71
2023/04/21 01:42:07;;;;;;;34.22;29.17;;;10.60;99.90;;;;;;2094340;28;20037;-71
2023/04/21 01:43:08;;;;;;;33.97;28.48;;;10.60;99.90;;;;;;2093369;28;20021;-71
2023/04/21 01:44:08;;;;;;;30.65;26.02;;;10.60;99.90;;;;;;2094613;28;20047;-71
2023/04/21 01:45:10;;;;;;;32.85;28.48;;;10.60;99.90;;;;;;2096115;28;20034;-71
2023/04/21 01:46:10;;;;;;;32.50;28.60;;;10.60;99.90;;;;;;2095480;28;20410;-71
2023/04/21 01:47:11;;;;;;;35.95;30.65;;;10.60;99.90;;;;;;2094598;28;20463;-71
2023/04/21 01:48:11;;;;;;;35.17;31.25;;;10.60;99.90;;;;;;2094401;28;20047;-71
2023/04/21 01:49:12;;;;;;;35.50;30.85;;;10.60;99.90;;;;;;2094982;28;20036;-71
2023/04/21 01:50:13;;;;;;;36.25;30.98;;;10.60;99.90;;;;;;2094192;28;20059;-71
2023/04/21 01:51:13;;;;;;;40.35;31.05;;;10.60;99.90;;;;;;2094169;28;20024;-71
2023/04/21 01:52:14;;;;;;;36.20;31.08;;;10.60;99.90;;;;;;2094198;28;20531;-71
2023/04/21 01:53:14;;;;;;;38.72;31.48;;;10.50;99.90;;;;;;2089864;28;20027;-71
2023/04/21 01:54:15;;;;;;;37.65;31.50;;;10.50;99.90;;;;;;2094119;28;20025;-71
2023/04/21 01:55:15;;;;;;;38.15;32.35;;;10.50;99.90;;;;;;2094025;28;20048;-71
2023/04/21 01:56:17;;;;;;;35.80;31.55;;;10.50;99.90;;;;;;2093303;28;20025;-71
2023/04/21 01:57:18;;;;;;;34.97;31.20;;;10.50;99.90;;;;;;2092870;28;20026;-71
2023/04/21 01:58:19;;;;;;;37.08;31.48;;;10.50;99.90;;;;;;2094409;28;20754;-71
2023/04/21 01:59:20;;;;;;;36.53;31.20;;;10.50;99.90;;;;;;2091468;28;20523;-71
2023/04/21 02:00:21;;;;;;;38.78;32.45;;;10.50;99.90;;;;;;2093968;28;20024;-71
2023/04/21 02:01:21;;;;;;;39.88;32.72;;;10.50;99.90;;;;;;2093218;28;20028;-71
2023/04/21 02:02:22;;;;;;;41.35;33.72;;;10.50;99.90;;;;;;2094895;28;20107;-71
2023/04/21 02:03:22;;;;;;;37.17;32.03;;;10.40;99.90;;;;;;2091052;28;20028;-71
2023/04/21 02:04:23;;;;;;;37.85;33.17;;;10.40;99.90;;;;;;2095600;28;20476;-71
2023/04/21 02:05:23;;;;;;;36.45;30.63;;;10.40;99.90;;;;;;2094844;28;20107;-71
2023/04/21 02:06:24;;;;;;;31.85;27.95;;;10.40;99.90;;;;;;2085241;28;20025;-71
2023/04/21 02:07:24;;;;;;;32.20;27.17;;;10.40;99.90;;;;;;2092783;28;20032;-71
2023/04/21 02:08:25;;;;;;;35.05;30.02;;;10.40;99.90;;;;;;2091002;28;20029;-71
2023/04/21 02:09:25;;;;;;;32.88;28.77;;;10.40;99.90;;;;;;2092561;28;20017;-71
2023/04/21 02:10:26;;;;;;;34.58;30.80;;;10.40;99.90;;;;;;2083711;28;20147;-71
2023/04/21 02:11:26;;;;;;;33.13;28.35;;;10.40;99.90;;;;;;2093386;28;20025;-71
2023/04/21 02:12:27;;;;;;;38.00;31.10;;;10.40;99.90;;;;;;2090694;28;20588;-71
2023/04/21 02:13:27;;;;;;;38.60;32.60;;;10.40;99.90;;;;;;2091257;28;20040;-71
2023/04/21 02:14:28;;;;;;;34.08;29.75;;;10.40;99.90;;;;;;2090172;28;20050;-71
2023/04/21 02:15:28;;;;;;;38.25;32.78;;;10.40;99.90;;;;;;2092875;28;20024;-71
2023/04/21 02:16:29;;;;;;;36.40;31.00;;;10.50;99.90;;;;;;2092637;28;20112;-71
2023/04/21 02:17:30;;;;;;;37.97;32.33;;;10.50;99.90;;;;;;2092950;28;20537;-71
2023/04/21 02:18:31;;;;;;;38.28;31.50;;;10.40;99.90;;;;;;2094224;28;20106;-72
2023/04/21 02:19:32;;;;;;;39.35;32.53;;;10.50;99.90;;;;;;2095002;28;20047;-72
2023/04/21 02:20:32;;;;;;;38.30;33.30;;;10.50;99.90;;;;;;2093791;28;20029;-72
2023/04/21 02:21:33;;;;;;;39.47;33.28;;;10.40;99.90;;;;;;2092688;28;20476;-72
2023/04/21 02:22:33;;;;;;;35.75;31.85;;;10.40;99.90;;;;;;2092470;28;20059;-72
2023/04/21 02:23:34;;;;;;;39.83;34.13;;;10.50;99.90;;;;;;2094837;28;20100;-72
2023/04/21 02:24:34;;;;;;;41.78;34.08;;;10.50;99.90;;;;;;2094250;28;20028;-72
2023/04/21 02:25:35;;;;;;;39.72;33.83;;;10.50;99.90;;;;;;2095188;28;20399;-72
2023/04/21 02:26:35;;;;;;;35.75;29.92;;;10.50;99.90;;;;;;2094701;28;20074;-72
2023/04/21 02:27:36;;;;;;;40.78;32.65;;;10.50;99.90;;;;;;2095229;28;20025;-72
2023/04/21 02:28:36;;;;;;;38.08;33.53;;;10.50;99.90;;;;;;2093649;28;20028;-72
2023/04/21 02:29:37;;;;;;;38.83;33.35;;;10.50;99.90;;;;;;2093433;28;20027;-72
2023/04/21 02:30:37;;;;;;;40.33;35.97;;;10.50;99.90;;;;;;2092661;28;20024;-72
2023/04/21 02:31:38;;;;;;;41.70;33.47;;;10.50;99.90;;;;;;2092696;28;20034;-72
2023/04/21 02:32:39;;;;;;;40.88;35.08;;;10.50;99.90;;;;;;2093429;28;20080;-72
2023/04/21 02:33:39;;;;;;;34.30;30.55;;;10.50;99.90;;;;;;2092664;28;20033;-72
2023/04/21 02:34:40;;;;;;;39.65;33.25;;;10.40;99.90;;;;;;2095708;28;20040;-72
2023/04/21 02:35:41;;;;;;;42.25;34.25;;;10.50;99.90;;;;;;2096809;28;20036;-72
2023/04/21 02:36:41;;;;;;;37.47;33.22;;;10.50;99.90;;;;;;2089967;28;20040;-72
2023/04/21 02:37:42;;;;;;;42.55;34.03;;;10.50;99.90;;;;;;2087346;28;20029;-72
2023/04/21 02:38:42;;;;;;;40.65;32.97;;;10.50;99.90;;;;;;2091626;28;20557;-72
2023/04/21 02:39:43;;;;;;;36.80;31.15;;;10.50;99.90;;;;;;2094375;28;20087;-72
2023/04/21 02:40:44;;;;;;;40.10;35.15;;;10.50;99.90;;;;;;2093423;28;20475;-72
2023/04/21 02:41:44;;;;;;;38.13;32.30;;;10.50;99.90;;;;;;2091575;28;20083;-72
2023/04/21 02:42:45;;;;;;;36.35;31.52;;;10.50;99.90;;;;;;2092246;28;20032;-72
2023/04/21 02:43:45;;;;;;;39.83;33.03;;;10.50;99.90;;;;;;2094829;28;20063;-72
2023/04/21 02:44:46;;;;;;;40.90;33.67;;;10.40;99.90;;;;;;2091960;28;20032;-72
2023/04/21 02:45:46;;;;;;;42.13;34.70;;;10.40;99.90;;;;;;2094614;28;20598;-72
2023/04/21 02:46:47;;;;;;;41.13;34.80;;;10.40;99.90;;;;;;2092943;28;20082;-72
2023/04/21 02:47:47;;;;;;;40.88;34.22;;;10.40;99.90;;;;;;2094413;28;20036;-72
2023/04/21 02:48:48;;;;;;;40.67;35.58;;;10.40;99.90;;;;;;2094415;28;20397;-72
2023/04/21 02:49:48;;;;;;;40.35;34.72;;;10.40;99.90;;;;;;2095545;28;20078;-73
2023/04/21 02:50:51;;;;;;;43.65;36.10;;;10.50;99.90;;;;;;2093413;28;20024;-72
2023/04/21 02:51:53;;;;;;;43.28;35.75;;;10.40;99.90;;;;;;2094071;28;20025;-72
2023/04/21 02:52:54;;;;;;;40.70;34.83;;;10.40;99.90;;;;;;2091899;28;20361;-72
2023/04/21 02:53:54;;;;;;;44.08;36.00;;;10.40;99.90;;;;;;2091062;28;20036;-72
2023/04/21 02:54:55;;;;;;;41.65;35.30;;;10.40;99.90;;;;;;2091604;28;20044;-72
2023/04/21 02:55:55;;;;;;;39.50;33.15;;;10.50;99.90;;;;;;2093121;28;20387;-72
2023/04/21 02:56:56;;;;;;;42.67;34.65;;;10.40;99.90;;;;;;2091511;28;20388;-72
2023/04/21 02:57:56;;;;;;;40.30;34.15;;;10.40;99.90;;;;;;2093174;28;20083;-72
2023/04/21 02:58:57;;;;;;;41.03;36.58;;;10.40;99.90;;;;;;2093858;28;20509;-72
2023/04/21 02:59:57;;;;;;;39.85;33.40;;;10.40;99.90;;;;;;2089865;28;20071;-72
2023/04/21 03:00:58;;;;;;;39.20;34.92;;;10.40;99.90;;;;;;2092909;28;20468;-72
2023/04/21 03:01:59;;;;;;;40.83;35.45;;;10.40;99.90;;;;;;2092789;28;20024;-72
2023/04/21 03:02:59;;;;;;;40.95;34.45;;;10.40;99.90;;;;;;2093407;28;20048;-72
2023/04/21 03:04:00;;;;;;;38.97;34.38;;;10.50;99.90;;;;;;2093179;28;20033;-72
2023/04/21 03:05:01;;;;;;;39.45;34.88;;;10.40;99.90;;;;;;2092518;28;20428;-72
2023/04/21 03:06:04;;;;;;;41.10;34.88;;;10.40;99.90;;;;;;2093286;28;20021;-72
2023/04/21 03:07:04;;;;;;;42.80;35.00;;;10.40;99.90;;;;;;2093422;28;20027;-72
2023/04/21 03:08:05;;;;;;;40.90;35.97;;;10.40;99.90;;;;;;2093858;28;20021;-72
2023/04/21 03:09:05;;;;;;;36.22;30.73;;;10.40;99.90;;;;;;2094428;28;20052;-72
2023/04/21 03:10:06;;;;;;;43.38;35.17;;;10.40;99.90;;;;;;2092848;28;20069;-72
2023/04/21 03:11:07;;;;;;;38.42;33.60;;;10.40;99.90;;;;;;2091322;28;20021;-72
2023/04/21 03:12:07;;;;;;;39.90;34.22;;;10.40;99.90;;;;;;2091248;28;20031;-72
2023/04/21 03:13:08;;;;;;;39.97;34.13;;;10.40;99.90;;;;;;2092556;28;20071;-72
2023/04/21 03:14:08;;;;;;;41.35;35.83;;;10.40;99.90;;;;;;2092702;28;20034;-72
2023/04/21 03:15:10;;;;;;;40.42;33.70;;;10.40;99.90;;;;;;2091894;28;20404;-72
2023/04/21 03:16:10;;;;;;;40.33;34.20;;;10.40;99.90;;;;;;2093190;28;20024;-72
2023/04/21 03:17:11;;;;;;;42.53;36.05;;;10.30;99.90;;;;;;2092489;28;20046;-72
2023/04/21 03:18:12;;;;;;;39.42;34.63;;;10.40;99.90;;;;;;2090777;28;20032;-72
2023/04/21 03:19:12;;;;;;;42.60;36.05;;;10.40;99.90;;;;;;2092544;28;20533;-72
2023/04/21 03:20:13;;;;;;;40.75;35.88;;;10.40;99.90;;;;;;2090723;28;20040;-72
2023/04/21 03:21:13;;;;;;;40.08;35.33;;;10.40;99.90;;;;;;2090752;28;20028;-72
2023/04/21 03:22:14;;;;;;;39.47;33.03;;;10.40;99.90;;;;;;2093485;28;20033;-72
2023/04/21 03:23:15;;;;;;;37.33;33.00;;;10.40;99.90;;;;;;2093427;28;20123;-72
2023/04/21 03:24:16;;;;;;;40.38;33.80;;;10.40;99.90;;;;;;2094064;28;20415;-72
2023/04/21 03:25:16;;;;;;;37.92;33.55;;;10.40;99.90;;;;;;2093378;28;20033;-72
2023/04/21 03:26:17;;;;;;;40.22;35.28;;;10.40;99.90;;;;;;2094920;28;20062;-72
2023/04/21 03:27:17;;;;;;;38.45;32.25;;;10.40;99.90;;;;;;2092379;28;20103;-72
2023/04/21 03:28:18;;;;;;;41.78;33.92;;;10.40;99.90;;;;;;2094853;28;20021;-72
2023/04/21 03:29:18;;;;;;;40.95;35.88;;;10.40;99.90;;;;;;2097736;28;20020;-72
2023/04/21 03:30:20;;;;;;;39.92;33.97;;;10.50;99.90;;;;;;2091726;28;20028;-72
2023/04/21 03:31:20;;;;;;;42.13;36.65;;;10.40;99.90;;;;;;2092907;28;20445;-72
2023/04/21 03:32:21;;;;;;;41.60;36.13;;;10.40;99.90;;;;;;2094014;28;20086;-72
2023/04/21 03:33:21;;;;;;;41.67;35.38;;;10.40;99.90;;;;;;2093754;28;20438;-72
2023/04/21 03:34:22;;;;;;;37.13;31.60;;;10.40;99.90;;;;;;2092434;28;20476;-72
2023/04/21 03:35:22;;;;;;;37.90;33.78;;;10.40;99.90;;;;;;2092780;28;20190;-72
2023/04/21 03:36:23;;;;;;;40.97;35.63;;;10.40;99.90;;;;;;2094615;28;20423;-73
2023/04/21 03:37:24;;;;;;;38.13;33.88;;;10.40;99.90;;;;;;2093581;28;20046;-72
2023/04/21 03:38:24;;;;;;;42.13;35.90;;;10.50;99.90;;;;;;2094367;28;20024;-72
2023/04/21 03:39:25;;;;;;;40.70;36.28;;;10.50;99.90;;;;;;2093236;28;20041;-72
2023/04/21 03:40:25;;;;;;;42.83;36.22;;;10.50;99.90;;;;;;2092135;28;20021;-72
2023/04/21 03:41:26;;;;;;;41.53;35.78;;;10.50;99.90;;;;;;2094783;28;20508;-72
2023/04/21 03:42:28;;;;;;;41.17;34.97;;;10.50;99.90;;;;;;2093392;28;20017;-72
2023/04/21 03:43:29;;;;;;;38.03;33.80;;;10.50;99.90;;;;;;2091380;28;20016;-72
2023/04/21 03:44:29;;;;;;;40.28;34.47;;;10.50;99.90;;;;;;2093388;28;20112;-72
2023/04/21 03:45:30;;;;;;;42.03;36.30;;;10.50;99.90;;;;;;2091313;28;20028;-72
2023/04/21 03:46:31;;;;;;;40.80;34.70;;;10.50;99.90;;;;;;2094889;28;20016;-72
2023/04/21 03:47:31;;;;;;;44.22;36.00;;;10.50;99.90;;;;;;2093867;28;20069;-72
2023/04/21 03:48:32;;;;;;;41.00;34.45;;;10.50;99.90;;;;;;2093604;28;20032;-72
2023/04/21 03:49:35;;;;;;;42.97;36.22;;;10.50;99.90;;;;;;2093893;28;20013;-72
2023/04/21 03:50:37;;;;;;;38.65;34.45;;;10.50;99.90;;;;;;2092514;28;20107;-72
2023/04/21 03:51:38;;;;;;;43.55;36.40;;;10.50;99.90;;;;;;2094539;28;20033;-72
2023/04/21 03:52:39;;;;;;;40.50;35.45;;;10.50;99.90;;;;;;2095978;28;20543;-72
2023/04/21 03:53:39;;;;;;;41.53;35.33;;;10.50;99.90;;;;;;2094823;28;20066;-72
2023/04/21 03:54:40;;;;;;;43.88;35.83;;;10.50;99.90;;;;;;2094982;28;20025;-72
2023/04/21 03:55:40;;;;;;;44.90;36.78;;;10.50;99.90;;;;;;2092020;28;20769;-72
2023/04/21 03:56:41;;;;;;;43.40;36.95;;;10.50;99.90;;;;;;2091869;28;20601;-72
2023/04/21 03:57:42;;;;;;;41.25;35.63;;;10.50;99.90;;;;;;2092195;28;20155;-72
2023/04/21 03:58:43;;;;;;;44.05;35.65;;;10.50;99.90;;;;;;2092417;28;20028;-72
2023/04/21 03:59:43;;;;;;;42.00;36.35;;;10.50;99.90;;;;;;2092181;28;20543;-72
2023/04/21 04:00:44;;;;;;;43.92;35.95;;;10.50;99.90;;;;;;2092561;28;20043;-72
2023/04/21 04:01:44;;;;;;;39.10;34.92;;;10.50;99.90;;;;;;2093518;28;20035;-72
2023/04/21 04:02:45;;;;;;;40.80;36.38;;;10.50;99.90;;;;;;2092926;28;20032;-72
2023/04/21 04:03:45;;;;;;;42.72;36.50;;;10.50;99.90;;;;;;2092815;28;20036;-72
2023/04/21 04:04:46;;;;;;;44.60;36.78;;;10.50;99.90;;;;;;2091323;28;20370;-72
2023/04/21 04:05:47;;;;;;;41.97;35.67;;;10.50;99.90;;;;;;2092110;28;20024;-72
2023/04/21 04:06:47;;;;;;;41.38;35.90;;;10.50;99.90;;;;;;2090166;28;20028;-72
2023/04/21 04:07:48;;;;;;;41.45;37.05;;;10.50;99.90;;;;;;2092651;28;20032;-72
2023/04/21 04:08:49;;;;;;;41.28;35.67;;;10.50;99.90;;;;;;2098747;28;20020;-72
2023/04/21 04:09:49;;;;;;;40.65;35.00;;;10.50;99.90;;;;;;2089815;28;20084;-72
2023/04/21 04:10:50;;;;;;;43.15;36.72;;;10.50;99.90;;;;;;2091958;28;20037;-72
2023/04/21 04:11:51;;;;;;;44.08;36.53;;;10.50;99.90;;;;;;2092085;28;20429;-72
2023/04/21 04:12:51;;;;;;;43.67;38.20;;;10.60;99.90;;;;;;2093312;28;20037;-72
2023/04/21 04:13:52;;;;;;;42.00;36.30;;;10.50;99.90;;;;;;2093204;28;20431;-72
2023/04/21 04:14:52;;;;;;;43.20;37.75;;;10.50;99.90;;;;;;2092618;28;20028;-72
2023/04/21 04:15:53;;;;;;;42.03;35.90;;;10.50;99.90;;;;;;2092241;28;20032;-72
2023/04/21 04:16:53;;;;;;;42.75;37.15;;;10.50;99.90;;;;;;2092570;28;20036;-73
2023/04/21 04:17:54;;;;;;;45.40;38.40;;;10.50;99.90;;;;;;2092338;28;20036;-73
2023/04/21 04:18:55;;;;;;;43.53;36.30;;;10.50;99.90;;;;;;2092324;28;20032;-72
2023/04/21 04:19:55;;;;;;;42.75;38.03;;;10.50;99.90;;;;;;2091609;28;20036;-72
2023/04/21 04:20:56;;;;;;;42.50;37.00;;;10.50;99.90;;;;;;2092647;28;20641;-72
2023/04/21 04:21:58;;;;;;;42.58;37.75;;;10.50;99.90;;;;;;2094043;28;20021;-72
2023/04/21 04:22:59;;;;;;;44.03;38.13;;;10.50;99.90;;;;;;2091514;28;20152;-72
2023/04/21 04:24:01;;;;;;;41.63;35.53;;;10.50;99.90;;;;;;2091309;28;20032;-72
2023/04/21 04:25:02;;;;;;;43.47;36.90;;;10.50;99.90;;;;;;2093128;28;20027;-72
2023/04/21 04:26:04;;;;;;;42.90;36.35;;;10.50;99.90;;;;;;2092432;28;20631;-72
2023/04/21 04:27:05;;;;;;;44.10;36.45;;;10.50;99.90;;;;;;2092673;28;20510;-73
2023/04/21 04:28:06;;;;;;;43.58;36.40;;;10.50;99.90;;;;;;2094571;28;20009;-73
2023/04/21 04:29:09;;;;;;;43.50;37.55;;;10.50;99.90;;;;;;2092805;28;20049;-73
2023/04/21 04:30:11;;;;;;;38.28;33.45;;;10.50;99.90;;;;;;2090975;28;20115;-73
2023/04/21 04:31:12;;;;;;;39.97;34.20;;;10.50;99.90;;;;;;2092989;28;20078;-73
2023/04/21 04:32:14;;;;;;;40.78;36.35;;;10.50;99.90;;;;;;2090114;28;20017;-72
2023/04/21 04:33:14;;;;;;;38.70;32.97;;;10.50;99.90;;;;;;2091252;28;20020;-72
2023/04/21 04:34:15;;;;;;;40.83;36.35;;;10.60;99.90;;;;;;2092271;28;20024;-72
2023/04/21 04:35:15;;;;;;;38.45;34.35;;;10.50;99.90;;;;;;2084346;28;20029;-72
2023/04/21 04:36:16;;;;;;;42.00;37.05;;;10.60;99.90;;;;;;2093268;28;20759;-72
2023/04/21 04:37:17;;;;;;;43.00;36.85;;;10.50;99.90;;;;;;2094221;28;20028;-72
2023/04/21 04:38:17;;;;;;;39.08;33.97;;;10.60;99.90;;;;;;2092069;28;20029;-72
2023/04/21 04:39:18;;;;;;;38.47;34.25;;;10.60;99.90;;;;;;2093639;28;20587;-72
2023/04/21 04:40:19;;;;;;;43.83;36.08;;;10.60;99.90;;;;;;2093857;28;20051;-72
2023/04/21 04:41:21;;;;;;;40.38;35.90;;;10.60;99.90;;;;;;2092773;28;20021;-72
2023/04/21 04:42:21;;;;;;;42.25;36.28;;;10.60;99.90;;;;;;2092977;28;20085;-72
2023/04/21 04:43:23;;;;;;;41.45;34.70;;;10.60;99.90;;;;;;2093905;28;20032;-72
2023/04/21 04:44:24;;;;;;;44.08;36.95;;;10.60;99.90;;;;;;2094125;28;20016;-73
2023/04/21 04:45:27;;;;;;;43.58;36.60;;;10.60;99.90;;;;;;2091767;28;20020;-72
2023/04/21 04:46:27;;;;;;;43.83;35.88;;;10.60;99.90;;;;;;2092539;28;20032;-72
2023/04/21 04:47:28;;;;;;;45.25;37.67;;;10.60;99.90;;;;;;2091938;28;20104;-72
2023/04/21 04:48:29;;;;;;;40.05;35.22;;;10.60;99.90;;;;;;2091154;28;20464;-72
2023/04/21 04:49:29;;;;;;;41.70;35.88;;;10.60;99.90;;;;;;2093295;28;20028;-72
2023/04/21 04:50:30;;;;;;;40.70;34.90;;;10.60;99.90;;;;;;2093435;28;20131;-73
2023/04/21 04:51:31;;;;;;;45.83;38.53;;;10.60;99.90;;;;;;2093381;28;20025;-73
2023/04/21 04:52:31;;;;;;;39.75;34.35;;;10.60;99.90;;;;;;2092926;28;20035;-73
2023/04/21 04:53:32;;;;;;;34.92;29.35;;;10.60;99.90;;;;;;2092225;28;20384;-72
2023/04/21 04:54:33;;;;;;;40.20;35.00;;;10.60;99.90;;;;;;2091022;28;20494;-72
2023/04/21 04:55:33;;;;;;;40.30;34.78;;;10.60;99.90;;;;;;2092191;28;20021;-72
2023/04/21 04:56:34;;;;;;;42.35;37.22;;;10.60;99.90;;;;;;2090820;28;20052;-72
2023/04/21 04:57:34;;;;;;;44.28;37.15;;;10.70;99.90;;;;;;2094323;28;20455;-73
2023/04/21 04:58:35;;;;;;;42.33;35.05;;;10.70;99.90;;;;;;2090163;28;20104;-72
2023/04/21 04:59:35;;;;;;;39.60;33.83;;;10.70;99.90;;;;;;2090330;28;20060;-72
2023/04/21 05:00:36;;;;;;;42.65;36.08;;;10.70;99.90;;;;;;2090026;28;20027;-73
2023/04/21 05:01:38;;;;;;;40.70;34.58;;;10.70;99.90;;;;;;2094636;28;20023;-73
2023/04/21 05:02:39;;;;;;;42.38;36.72;;;10.70;99.90;;;;;;2092014;28;20021;-73
2023/04/21 05:03:41;;;;;;;39.58;35.28;;;10.60;99.90;;;;;;2092750;28;20071;-73
2023/04/21 05:04:41;;;;;;;45.53;38.15;;;10.60;99.90;;;;;;2090384;28;20037;-73
2023/04/21 05:05:42;;;;;;;40.50;35.25;;;10.60;99.90;;;;;;2091735;28;20037;-73
2023/04/21 05:06:42;;;;;;;42.97;37.33;;;10.60;99.90;;;;;;2092259;28;20725;-73
2023/04/21 05:07:43;;;;;;;41.92;36.72;;;10.60;99.90;;;;;;2088636;28;20021;-73
2023/04/21 05:08:43;;;;;;;43.35;37.88;;;10.60;99.90;;;;;;2089737;28;20054;-73
2023/04/21 05:09:44;;;;;;;42.97;37.60;;;10.60;99.90;;;;;;2090158;28;20033;-73